首页
METAR-TAF:

METAR-TAF

机场 :

Powell River, 不列颠哥伦比亚, 加拿大

纬度: 49-50N, 经度: 124-30W, 海拔: 130米

当前天气观测

该预报发布于38分钟前的19:00 UTC
风速6节,风向东转东南,在南转南东之间变化
温度 11°C
湿度 94%
气压 1016 hPa
能見度: 24.1公里
散云层高于800英尺
阴天层高于2000英尺

METAR: CYPW 171900Z 11006KT 080V150 15SM SCT008 OVC020 11/10 A3001 RMK SF3SC5 SLP166

时间: 11:38 (19:38 UTC)


TAF: 丢失

超过4000个机场的气象观测和天气预报(METAR&TAF报告)。

可查询的气象台以黄色和红色小点在地图上表示。

将鼠标移到小点上方,可查看气象台名称。

然后点击查看天气观测和预报。

如需切换地图:点击带黑十字的绿色按钮放大地图;点击带横线的绿色按钮缩小地图;或者点击绿色箭头查看邻近地区的地图。


METAR-TAF: